Time;durP1;ratioP1;P1;durP2;ratioP2;P2;SDS_P1;SDS_P2;PMS_P1;PMS_P2;Temp;Humidity;BMP_temperature;BMP_pressure;BME280_temperature;BME280_humidity;BME280_pressure;Samples;Min_cycle;Max_cycle;Signal;HPM_P1;HPM_P2
2023/01/12 00:02:14;;;;;;;7.93;2.72;;;6.60;99.90;;;;;;5048242;28;20100;-59
2023/01/12 00:04:39;;;;;;;11.02;2.95;;;6.60;99.90;;;;;;5029847;28;20047;-58
2023/01/12 00:07:07;;;;;;;6.40;2.75;;;6.60;99.90;;;;;;5049126;28;20505;-59
2023/01/12 00:09:33;;;;;;;10.20;2.80;;;6.60;99.90;;;;;;5049249;28;20029;-61
2023/01/12 00:11:59;;;;;;;8.65;3.13;;;6.60;99.90;;;;;;5030255;28;20090;-60
2023/01/12 00:14:24;;;;;;;10.15;2.95;;;6.70;99.90;;;;;;5047867;28;20033;-60
2023/01/12 00:16:50;;;;;;;9.38;3.17;;;6.60;99.90;;;;;;5047909;28;20027;-58
2023/01/12 00:19:18;;;;;;;10.18;3.22;;;6.70;99.90;;;;;;5047524;28;20100;-56
2023/01/12 00:24:35;;;;;;;11.00;4.10;;;6.60;99.90;;;;;;5048582;28;20041;-59
2023/01/12 00:27:03;;;;;;;10.27;2.92;;;6.60;99.90;;;;;;5048396;28;20044;-60
2023/01/12 00:29:29;;;;;;;6.10;2.70;;;6.60;99.90;;;;;;5049199;28;20025;-60
2023/01/12 00:31:56;;;;;;;10.93;2.42;;;6.60;99.90;;;;;;5030813;28;20083;-59
2023/01/12 00:34:22;;;;;;;9.05;2.78;;;6.60;99.90;;;;;;5047511;28;20535;-57
2023/01/12 00:36:48;;;;;;;9.63;2.75;;;6.60;99.90;;;;;;5047900;28;20029;-57
2023/01/12 00:39:14;;;;;;;12.27;3.03;;;6.60;99.90;;;;;;5028304;28;20033;-56
2023/01/12 00:47:11;;;;;;;10.77;3.05;;;6.70;99.90;;;;;;5047944;28;20110;-59
2023/01/12 00:49:38;;;;;;;8.48;2.22;;;6.70;99.90;;;;;;5047253;28;20092;-60
2023/01/12 00:52:05;;;;;;;10.88;2.63;;;6.70;99.90;;;;;;5029902;28;20624;-57
2023/01/12 00:54:32;;;;;;;6.72;2.10;;;6.70;99.90;;;;;;5048220;28;20471;-60
2023/01/12 00:56:57;;;;;;;7.45;2.53;;;6.70;99.90;;;;;;5046694;28;20025;-60
2023/01/12 00:59:23;;;;;;;8.88;2.67;;;6.80;99.90;;;;;;5048262;28;20087;-58
2023/01/12 01:01:49;;;;;;;6.43;2.13;;;6.80;99.90;;;;;;5047583;28;20400;-59
2023/01/12 01:04:15;;;;;;;4.55;2.28;;;6.70;99.90;;;;;;5047548;28;20071;-59
2023/01/12 01:06:40;;;;;;;6.32;3.10;;;6.70;99.90;;;;;;5047867;28;20029;-60
2023/01/12 01:09:06;;;;;;;9.82;2.25;;;6.80;99.90;;;;;;5048610;28;20773;-54
2023/01/12 01:11:32;;;;;;;11.85;3.10;;;6.70;99.90;;;;;;5029629;28;20394;-54
2023/01/12 01:13:58;;;;;;;7.50;2.45;;;6.80;99.90;;;;;;5047136;28;20511;-57
2023/01/12 01:16:24;;;;;;;6.10;1.90;;;6.80;99.90;;;;;;5047215;28;20025;-56
2023/01/12 01:18:50;;;;;;;3.83;1.85;;;6.90;99.90;;;;;;5046486;28;20036;-59
2023/01/12 01:21:15;;;;;;;13.52;3.70;;;6.90;99.90;;;;;;5047482;28;20053;-56
2023/01/12 01:23:41;;;;;;;15.45;3.42;;;6.90;99.90;;;;;;5047663;28;20037;-59
2023/01/12 01:26:16;;;;;;;4.32;2.13;;;6.90;99.90;;;;;;5047631;28;20028;-58
2023/01/12 01:28:42;;;;;;;4.45;1.60;;;6.90;99.90;;;;;;5047320;28;20028;-57
2023/01/12 01:31:18;;;;;;;2.20;1.00;;;6.50;99.90;;;;;;5029238;28;20090;-58
2023/01/12 01:33:44;;;;;;;2.17;0.60;;;6.20;99.90;;;;;;5047002;28;20025;-59
2023/01/12 01:36:09;;;;;;;2.00;0.82;;;6.10;99.90;;;;;;5048070;28;20033;-57
2023/01/12 01:38:36;;;;;;;1.23;0.55;;;5.90;99.90;;;;;;5042214;28;20064;-59
2023/01/12 01:41:02;;;;;;;3.60;0.80;;;5.80;99.90;;;;;;5029072;28;20056;-59
2023/01/12 01:43:28;;;;;;;2.83;1.00;;;5.70;99.90;;;;;;5027331;28;20029;-57
2023/01/12 01:45:57;;;;;;;4.40;1.15;;;5.60;99.90;;;;;;5047334;28;20031;-58
2023/01/12 01:48:24;;;;;;;5.60;1.15;;;5.60;99.90;;;;;;5046473;28;20086;-59
2023/01/12 01:51:00;;;;;;;3.22;1.25;;;5.70;99.90;;;;;;5047080;28;20032;-58
2023/01/12 01:53:28;;;;;;;3.08;1.05;;;5.70;99.90;;;;;;5046988;28;20078;-59
2023/01/12 01:56:00;;;;;;;1.88;1.35;;;5.70;99.90;;;;;;5046084;28;20056;-59
2023/01/12 01:58:29;;;;;;;2.42;1.15;;;5.70;99.90;;;;;;5045426;28;20037;-58
2023/01/12 02:00:55;;;;;;;3.50;0.93;;;5.60;99.90;;;;;;5044738;28;20024;-57
2023/01/12 02:03:22;;;;;;;3.72;0.82;;;5.70;99.90;;;;;;5045591;28;20053;-58
2023/01/12 02:05:48;;;;;;;2.47;1.00;;;5.60;99.90;;;;;;5046855;28;20052;-58
2023/01/12 02:08:32;;;;;;;5.22;1.17;;;5.60;99.90;;;;;;5044486;28;20574;-58
2023/01/12 02:10:59;;;;;;;3.40;1.15;;;5.70;99.90;;;;;;5046075;28;20021;-58
2023/01/12 02:16:24;;;;;;;5.88;1.27;;;5.70;99.90;;;;;;5046044;28;20503;-58
2023/01/12 02:18:57;;;;;;;2.70;1.00;;;5.70;99.90;;;;;;5046855;28;20028;-57
2023/01/12 02:21:47;;;;;;;5.90;1.65;;;5.70;99.90;;;;;;5046630;28;20108;-58
2023/01/12 02:24:50;;;;;;;3.33;1.58;;;5.70;99.90;;;;;;5029649;28;20495;-59
2023/01/12 02:27:28;;;;;;;3.97;1.45;;;5.70;99.90;;;;;;5029415;28;20021;-57
2023/01/12 02:29:57;;;;;;;5.38;1.58;;;5.80;99.90;;;;;;5028830;28;20031;-56
2023/01/12 02:32:30;;;;;;;1.55;1.15;;;5.70;99.90;;;;;;5044427;28;20120;-57
2023/01/12 02:34:56;;;;;;;3.08;1.25;;;5.80;99.90;;;;;;5046250;28;20602;-59
2023/01/12 02:37:45;;;;;;;6.70;1.88;;;5.70;99.90;;;;;;5046722;28;20028;-58
2023/01/12 02:40:32;;;;;;;7.18;2.10;;;5.80;99.90;;;;;;5046941;28;20515;-58
2023/01/12 02:43:32;;;;;;;5.38;2.22;;;5.80;99.90;;;;;;5045927;28;20108;-57
2023/01/12 02:46:22;;;;;;;8.88;2.53;;;5.80;99.90;;;;;;5048790;28;20033;-58
2023/01/12 02:48:58;;;;;;;6.38;2.58;;;5.90;99.90;;;;;;5050566;28;20072;-57
2023/01/12 02:51:28;;;;;;;10.65;3.28;;;5.90;99.90;;;;;;5049159;28;20111;-55
2023/01/12 02:54:02;;;;;;;11.02;2.35;;;6.00;99.90;;;;;;5049816;28;20035;-54
2023/01/12 02:56:36;;;;;;;15.57;2.55;;;6.00;99.90;;;;;;5050281;28;20025;-59
2023/01/12 02:59:12;;;;;;;10.35;2.58;;;6.00;99.90;;;;;;5050922;28;20469;-54
2023/01/12 03:01:39;;;;;;;8.00;2.78;;;6.10;99.90;;;;;;5050493;28;20036;-59
2023/01/12 03:04:07;;;;;;;16.35;4.72;;;6.10;99.90;;;;;;5049181;28;20068;-57
2023/01/12 03:07:05;;;;;;;8.32;2.63;;;6.10;99.90;;;;;;5050218;28;20096;-58
2023/01/12 03:09:42;;;;;;;7.03;3.00;;;6.20;99.90;;;;;;5050203;28;20482;-55
2023/01/12 03:12:19;;;;;;;10.25;2.70;;;6.30;99.90;;;;;;5032357;28;20033;-55
2023/01/12 03:14:49;;;;;;;11.52;3.53;;;6.30;99.90;;;;;;5050056;28;20021;-58
2023/01/12 03:17:30;;;;;;;10.13;3.20;;;6.30;99.90;;;;;;5050071;28;20017;-57
2023/01/12 03:20:04;;;;;;;6.13;3.22;;;6.40;99.90;;;;;;5049824;28;20930;-58
2023/01/12 03:22:33;;;;;;;7.68;2.90;;;6.40;99.90;;;;;;5050575;28;20033;-59
2023/01/12 03:25:01;;;;;;;12.70;3.13;;;6.40;99.90;;;;;;5031641;28;20029;-59
2023/01/12 03:27:52;;;;;;;11.20;2.90;;;6.40;99.90;;;;;;5049491;28;20108;-60
2023/01/12 03:30:41;;;;;;;7.47;2.05;;;6.50;99.90;;;;;;5049919;28;20029;-59
2023/01/12 03:33:07;;;;;;;12.77;3.78;;;6.50;99.90;;;;;;5050108;28;20127;-58
2023/01/12 03:35:39;;;;;;;10.80;2.78;;;6.50;99.90;;;;;;5049088;28;20515;-59
2023/01/12 03:38:18;;;;;;;5.85;2.67;;;6.50;99.90;;;;;;5049179;28;20060;-57
2023/01/12 03:40:50;;;;;;;11.68;2.85;;;6.50;99.90;;;;;;5030822;28;20036;-59
2023/01/12 03:43:22;;;;;;;7.35;2.67;;;6.50;99.90;;;;;;5049244;28;20100;-59
2023/01/12 03:45:55;;;;;;;12.25;2.13;;;6.50;99.90;;;;;;5014410;28;20050;-59
2023/01/12 03:48:25;;;;;;;4.95;1.48;;;6.50;99.90;;;;;;5049256;28;20207;-57
2023/01/12 03:51:08;;;;;;;6.15;2.45;;;6.50;99.90;;;;;;5049065;28;20443;-58
2023/01/12 03:53:35;;;;;;;10.52;2.42;;;6.50;99.90;;;;;;5050446;28;20489;-59
2023/01/12 03:56:07;;;;;;;8.75;2.85;;;6.50;99.90;;;;;;5048120;28;20033;-58
2023/01/12 03:58:34;;;;;;;6.03;2.08;;;6.50;99.90;;;;;;5030971;28;20032;-57
2023/01/12 04:01:00;;;;;;;8.95;2.30;;;6.50;99.90;;;;;;5049268;28;20713;-55
2023/01/12 04:03:26;;;;;;;12.95;2.83;;;6.50;99.90;;;;;;5048706;28;20033;-59
2023/01/12 04:05:52;;;;;;;7.78;2.30;;;6.50;99.90;;;;;;5030947;28;20665;-57
2023/01/12 04:08:17;;;;;;;7.78;2.05;;;6.50;99.90;;;;;;5031357;28;20040;-59
2023/01/12 04:10:43;;;;;;;7.13;2.47;;;6.50;99.90;;;;;;5048982;28;20036;-59
2023/01/12 04:13:09;;;;;;;9.32;1.95;;;6.50;99.90;;;;;;5048933;28;20033;-58
2023/01/12 04:15:41;;;;;;;5.10;2.08;;;6.50;99.90;;;;;;5048421;28;20116;-57
2023/01/12 04:18:08;;;;;;;10.88;2.63;;;6.50;99.90;;;;;;5048529;28;20056;-58
2023/01/12 04:20:34;;;;;;;9.55;2.90;;;6.50;99.90;;;;;;5049179;28;20036;-57
2023/01/12 04:22:59;;;;;;;6.68;2.55;;;6.50;99.90;;;;;;5049287;28;20567;-57
2023/01/12 04:25:25;;;;;;;5.18;2.80;;;6.60;99.90;;;;;;5048694;28;20029;-58
2023/01/12 04:27:54;;;;;;;7.80;3.55;;;6.50;99.90;;;;;;5013364;28;20112;-58
2023/01/12 04:30:23;;;;;;;7.57;2.88;;;6.60;99.90;;;;;;5048917;28;20021;-55
2023/01/12 04:32:49;;;;;;;6.53;2.88;;;6.60;99.90;;;;;;5031143;28;20038;-59
2023/01/12 04:35:15;;;;;;;7.28;2.95;;;6.60;99.90;;;;;;5012711;28;20661;-58
2023/01/12 04:37:42;;;;;;;6.28;2.70;;;6.60;99.90;;;;;;5048786;28;20029;-58
2023/01/12 04:40:09;;;;;;;7.85;3.92;;;6.70;99.90;;;;;;5030020;28;20084;-58
2023/01/12 04:45:20;;;;;;;4.97;2.92;;;6.80;99.90;;;;;;5048842;28;20047;-57
2023/01/12 04:47:45;;;;;;;9.70;3.25;;;6.70;99.90;;;;;;5030645;28;20025;-58
2023/01/12 04:50:11;;;;;;;7.95;2.72;;;6.70;99.90;;;;;;5047861;28;20037;-57
2023/01/12 04:52:37;;;;;;;4.15;2.40;;;6.80;99.90;;;;;;5048147;28;20120;-58
2023/01/12 04:55:04;;;;;;;7.70;3.22;;;6.80;99.90;;;;;;5048336;28;20025;-58
2023/01/12 04:57:30;;;;;;;5.35;2.55;;;6.80;99.90;;;;;;5048479;28;20503;-59
2023/01/12 04:59:55;;;;;;;8.05;2.63;;;6.70;99.90;;;;;;5030376;28;20016;-58
2023/01/12 05:02:21;;;;;;;4.63;1.95;;;6.70;99.90;;;;;;5048350;28;20116;-57
2023/01/12 05:04:47;;;;;;;7.43;2.55;;;6.70;99.90;;;;;;5048231;28;20056;-56
2023/01/12 05:07:12;;;;;;;8.82;2.85;;;6.70;99.90;;;;;;5047668;28;20032;-59
2023/01/12 05:12:22;;;;;;;10.73;2.22;;;6.80;99.90;;;;;;5047854;28;20381;-57
2023/01/12 05:14:49;;;;;;;10.73;3.15;;;6.70;99.90;;;;;;5047625;28;20021;-58
2023/01/12 05:17:15;;;;;;;8.23;2.42;;;6.80;99.90;;;;;;5008304;28;20120;-58
2023/01/12 05:19:40;;;;;;;8.48;2.33;;;6.80;99.90;;;;;;5047975;28;20024;-56
2023/01/12 05:22:06;;;;;;;5.22;2.60;;;6.80;99.90;;;;;;5048127;28;20021;-58
2023/01/12 05:24:32;;;;;;;9.80;1.88;;;6.80;99.90;;;;;;5048128;28;20032;-58
2023/01/12 05:26:59;;;;;;;7.10;2.47;;;6.80;99.90;;;;;;5028847;28;20057;-58
2023/01/12 05:29:25;;;;;;;8.73;2.35;;;6.80;99.90;;;;;;5047894;28;20464;-56
2023/01/12 05:31:50;;;;;;;4.43;2.58;;;6.80;99.90;;;;;;5046552;28;20111;-59
2023/01/12 05:34:19;;;;;;;8.02;2.75;;;6.80;99.90;;;;;;5048537;28;20025;-58
2023/01/12 05:36:48;;;;;;;8.27;2.28;;;6.80;99.90;;;;;;5046645;28;20025;-59
2023/01/12 05:39:14;;;;;;;4.57;2.38;;;6.80;99.90;;;;;;5047483;28;20034;-58
2023/01/12 05:43:48;;;;;;;5.65;2.45;;;6.80;99.90;;;;;;5047047;28;20477;-58
2023/01/12 05:44:26;;;;;;;5.72;2.50;;;6.80;99.90;;;;;;5047486;28;20481;-58
2023/01/12 05:46:52;;;;;;;7.53;2.17;;;6.80;99.90;;;;;;5046512;28;20029;-58
2023/01/12 05:49:17;;;;;;;3.13;2.15;;;6.80;99.90;;;;;;5047311;28;20547;-56
2023/01/12 05:51:43;;;;;;;5.70;2.38;;;6.80;99.90;;;;;;5045666;28;20017;-58
2023/01/12 05:54:08;;;;;;;4.15;1.92;;;6.80;99.90;;;;;;5029443;28;20025;-58
2023/01/12 05:56:34;;;;;;;5.55;2.83;;;6.80;99.90;;;;;;5047157;28;20054;-59
2023/01/12 05:59:01;;;;;;;6.28;2.80;;;6.90;99.90;;;;;;5029441;28;20024;-58
2023/01/12 06:01:28;;;;;;;4.43;2.83;;;6.90;99.90;;;;;;5046885;28;20024;-58
2023/01/12 06:03:55;;;;;;;5.57;3.08;;;6.90;99.90;;;;;;5028843;28;20055;-59
2023/01/12 06:06:24;;;;;;;3.72;2.28;;;6.90;99.90;;;;;;5045773;28;20049;-58
2023/01/12 06:08:51;;;;;;;9.30;2.60;;;6.90;99.90;;;;;;5046126;28;20100;-58
2023/01/12 06:14:02;;;;;;;6.43;2.25;;;6.90;99.90;;;;;;5046611;28;20040;-57
2023/01/12 06:16:28;;;;;;;5.90;2.13;;;6.90;99.90;;;;;;5046194;28;20036;-59
2023/01/12 06:18:54;;;;;;;5.47;2.22;;;6.90;99.90;;;;;;5044303;28;20025;-58
2023/01/12 06:21:20;;;;;;;4.78;2.33;;;6.90;99.90;;;;;;5046046;28;20473;-59
2023/01/12 06:23:46;;;;;;;5.90;2.63;;;7.00;99.90;;;;;;5046973;28;20028;-58
2023/01/12 06:26:11;;;;;;;7.15;2.67;;;7.00;99.90;;;;;;5047104;28;20029;-59
2023/01/12 06:28:39;;;;;;;1.83;1.73;;;7.00;99.90;;;;;;5046991;28;20385;-59
2023/01/12 06:31:07;;;;;;;6.10;2.70;;;7.00;99.90;;;;;;5046292;28;20133;-59
2023/01/12 06:33:33;;;;;;;4.88;2.03;;;6.90;99.90;;;;;;5047938;28;20035;-59
2023/01/12 06:35:59;;;;;;;4.22;2.83;;;7.00;99.90;;;;;;5046913;28;20163;-59
2023/01/12 06:38:27;;;;;;;6.47;2.13;;;7.00;99.90;;;;;;5046971;28;20116;-59
2023/01/12 06:40:52;;;;;;;4.32;2.13;;;7.00;99.90;;;;;;5046087;28;20025;-58
2023/01/12 06:43:18;;;;;;;3.47;2.60;;;7.00;99.90;;;;;;5045778;28;20021;-56
2023/01/12 06:45:44;;;;;;;4.53;2.83;;;7.00;99.90;;;;;;5045965;28;20063;-58
2023/01/12 06:48:10;;;;;;;2.78;2.47;;;7.10;99.90;;;;;;5046684;28;20104;-59
2023/01/12 06:50:36;;;;;;;4.57;3.22;;;7.00;99.90;;;;;;5046784;28;20428;-59
2023/01/12 06:53:04;;;;;;;4.70;3.25;;;7.10;99.90;;;;;;5045752;28;20033;-58
2023/01/12 06:55:30;;;;;;;5.00;3.47;;;7.10;99.90;;;;;;5028682;28;20044;-58
2023/01/12 06:57:55;;;;;;;6.55;5.85;;;7.10;99.90;;;;;;5046253;28;20481;-59
2023/01/12 07:00:21;;;;;;;6.25;5.45;;;7.10;99.90;;;;;;5047037;28;20021;-59
2023/01/12 07:02:50;;;;;;;5.72;4.32;;;7.20;99.90;;;;;;5046499;28;20056;-58
2023/01/12 07:05:16;;;;;;;8.38;3.47;;;7.20;99.90;;;;;;5046538;28;20538;-60
2023/01/12 07:07:42;;;;;;;9.27;3.80;;;7.20;99.90;;;;;;5045988;28;20039;-61
2023/01/12 07:10:09;;;;;;;6.57;5.00;;;7.20;99.90;;;;;;5029139;28;20021;-58
2023/01/12 07:12:35;;;;;;;4.45;4.07;;;7.20;99.90;;;;;;5045762;28;20115;-57
2023/01/12 07:15:00;;;;;;;6.85;3.65;;;7.20;99.90;;;;;;5046331;28;20623;-57
2023/01/12 07:17:26;;;;;;;5.70;4.47;;;7.20;99.90;;;;;;5045821;28;20025;-59
2023/01/12 07:19:51;;;;;;;4.68;3.92;;;7.20;99.90;;;;;;5045313;28;20444;-59
2023/01/12 07:22:17;;;;;;;6.57;3.95;;;7.30;99.90;;;;;;5046656;28;20056;-59
2023/01/12 07:24:42;;;;;;;6.75;4.05;;;7.30;99.90;;;;;;5046419;28;20578;-60
2023/01/12 07:27:08;;;;;;;6.57;5.53;;;7.20;99.90;;;;;;5046278;28;20039;-59
2023/01/12 07:29:34;;;;;;;6.60;3.42;;;7.30;99.90;;;;;;5046509;28;20061;-58
2023/01/12 07:32:00;;;;;;;4.03;3.60;;;7.30;99.90;;;;;;5047967;28;20025;-59
2023/01/12 07:34:26;;;;;;;6.47;3.40;;;7.30;99.90;;;;;;5049531;28;20056;-59
2023/01/12 07:36:52;;;;;;;5.20;3.72;;;7.30;99.90;;;;;;5049527;28;20049;-60
2023/01/12 07:39:17;;;;;;;7.07;4.05;;;7.30;99.90;;;;;;5050472;28;20501;-60
2023/01/12 07:44:27;;;;;;;3.38;3.08;;;7.30;99.90;;;;;;5035596;28;20448;-60
2023/01/12 07:46:53;;;;;;;4.45;3.10;;;7.30;99.90;;;;;;5049642;28;20017;-59
2023/01/12 07:49:19;;;;;;;3.47;3.15;;;7.40;99.90;;;;;;5050179;28;20401;-60
2023/01/12 07:51:44;;;;;;;4.20;3.17;;;7.40;99.90;;;;;;5031264;28;20028;-59
2023/01/12 07:54:10;;;;;;;4.28;3.38;;;7.40;99.90;;;;;;5031406;28;20021;-59
2023/01/12 07:56:36;;;;;;;4.63;3.25;;;7.40;99.90;;;;;;5048369;28;20485;-59
2023/01/12 07:59:01;;;;;;;10.40;2.85;;;7.40;99.90;;;;;;5049609;28;20021;-59
2023/01/12 08:01:27;;;;;;;4.22;3.10;;;7.40;99.90;;;;;;5049853;28;20017;-57
2023/01/12 08:03:53;;;;;;;6.45;2.80;;;7.40;99.90;;;;;;5049471;28;20021;-58
2023/01/12 08:06:19;;;;;;;3.42;2.60;;;7.40;99.90;;;;;;5049470;28;20082;-60
2023/01/12 08:08:44;;;;;;;4.68;2.83;;;7.40;99.90;;;;;;5048640;28;20087;-58
2023/01/12 08:11:10;;;;;;;7.55;2.80;;;7.40;99.90;;;;;;5049555;28;20365;-59
2023/01/12 08:13:37;;;;;;;3.85;2.10;;;7.40;99.90;;;;;;5049382;28;20108;-60
2023/01/12 08:16:18;;;;;;;2.75;1.80;;;7.40;99.90;;;;;;5030987;28;20071;-59
2023/01/12 08:18:56;;;;;;;2.50;2.17;;;7.50;99.90;;;;;;5049226;28;20434;-57
2023/01/12 08:21:26;;;;;;;3.20;1.70;;;7.40;99.90;;;;;;5031500;28;20032;-60
2023/01/12 08:23:56;;;;;;;3.53;1.90;;;7.40;99.90;;;;;;5045051;28;20052;-59
2023/01/12 08:26:26;;;;;;;2.75;1.65;;;7.40;99.90;;;;;;5048960;28;20036;-59
2023/01/12 08:29:28;;;;;;;1.70;1.42;;;7.40;99.90;;;;;;5048541;28;20086;-59
2023/01/12 08:32:00;;;;;;;1.23;1.13;;;7.40;99.90;;;;;;5029772;28;20032;-59
2023/01/12 08:34:27;;;;;;;4.20;1.50;;;7.40;99.90;;;;;;5049584;28;20044;-60
2023/01/12 08:36:53;;;;;;;2.55;0.93;;;7.40;99.90;;;;;;5047462;28;20451;-56
2023/01/12 08:39:18;;;;;;;2.53;1.23;;;7.30;99.90;;;;;;5048967;28;20017;-58
2023/01/12 08:41:44;;;;;;;1.58;1.05;;;7.30;99.90;;;;;;5048068;28;20381;-59
2023/01/12 08:44:10;;;;;;;2.60;1.35;;;7.40;99.90;;;;;;5048550;28;20021;-59
2023/01/12 08:46:38;;;;;;;2.65;0.90;;;7.30;99.90;;;;;;5048243;28;20029;-59
2023/01/12 08:49:08;;;;;;;1.33;0.77;;;7.30;99.90;;;;;;5047706;28;20117;-57
2023/01/12 08:51:34;;;;;;;1.33;0.88;;;7.30;99.90;;;;;;5048024;28;20512;-59
2023/01/12 08:54:01;;;;;;;1.70;1.08;;;7.40;99.90;;;;;;5048803;28;20017;-60
2023/01/12 08:56:26;;;;;;;1.80;1.08;;;7.30;99.90;;;;;;5047377;28;20060;-59
2023/01/12 08:58:52;;;;;;;3.40;0.77;;;7.40;99.90;;;;;;5048462;28;20048;-58
2023/01/12 09:01:18;;;;;;;0.75;0.65;;;7.40;99.90;;;;;;5048919;28;20100;-59
2023/01/12 09:03:44;;;;;;;2.30;0.82;;;7.40;99.90;;;;;;5047163;28;20047;-60
2023/01/12 09:06:16;;;;;;;1.95;1.00;;;7.40;99.90;;;;;;5047972;28;20094;-59
2023/01/12 09:08:42;;;;;;;2.33;1.02;;;7.40;99.90;;;;;;5029859;28;20060;-60
2023/01/12 09:11:09;;;;;;;2.60;1.55;;;7.40;99.90;;;;;;5048446;28;20025;-58
2023/01/12 09:13:35;;;;;;;2.20;1.13;;;7.40;99.90;;;;;;5047389;28;20044;-58
2023/01/12 09:16:10;;;;;;;4.93;2.15;;;7.50;99.90;;;;;;5047290;28;20028;-59
2023/01/12 09:18:36;;;;;;;4.55;2.25;;;7.50;99.90;;;;;;5046231;28;20033;-60
2023/01/12 09:21:11;;;;;;;5.13;3.30;;;7.50;99.90;;;;;;5048445;28;20021;-61
2023/01/12 09:23:37;;;;;;;2.88;1.00;;;7.50;99.90;;;;;;5029918;28;20036;-60
2023/01/12 09:26:08;;;;;;;2.38;1.10;;;7.50;99.90;;;;;;5045957;28;20028;-58
2023/01/12 09:28:34;;;;;;;1.10;0.70;;;7.50;99.90;;;;;;5047806;28;20028;-59
2023/01/12 09:31:01;;;;;;;1.00;0.60;;;7.60;99.90;;;;;;5047526;28;20579;-59
2023/01/12 09:33:28;;;;;;;2.88;1.08;;;7.60;99.90;;;;;;5028767;28;20021;-60
2023/01/12 09:36:02;;;;;;;0.95;0.80;;;7.60;99.90;;;;;;5046260;28;20025;-58
2023/01/12 09:38:28;;;;;;;1.27;0.68;;;7.60;99.90;;;;;;5029326;28;20036;-58
2023/01/12 09:40:57;;;;;;;1.30;0.77;;;7.70;99.90;;;;;;5028731;28;20045;-59
2023/01/12 09:49:15;;;;;;;0.90;0.82;;;7.80;99.90;;;;;;5023824;28;20109;-58
2023/01/12 09:51:55;;;;;;;1.08;0.77;;;7.80;99.90;;;;;;5027796;28;20561;-56
2023/01/12 09:54:21;;;;;;;1.23;0.95;;;7.90;99.90;;;;;;5025818;28;20029;-57
2023/01/12 09:56:55;;;;;;;1.00;0.65;;;7.90;99.90;;;;;;5027645;28;20033;-58
2023/01/12 10:00:02;;;;;;;1.17;1.08;;;7.90;99.90;;;;;;5026379;28;20029;-58
2023/01/12 10:02:33;;;;;;;2.65;1.10;;;7.90;99.90;;;;;;4989306;28;20113;-56
2023/01/12 10:05:06;;;;;;;1.27;1.17;;;7.90;99.90;;;;;;5026690;28;20022;-56
2023/01/12 10:07:33;;;;;;;2.63;1.13;;;8.00;99.90;;;;;;5027635;28;20084;-59
2023/01/12 10:09:59;;;;;;;1.67;0.90;;;8.00;99.90;;;;;;5027238;28;20063;-58
2023/01/12 10:12:40;;;;;;;0.77;0.73;;;8.00;99.90;;;;;;5027197;28;20048;-55
2023/01/12 10:15:18;;;;;;;2.15;0.88;;;8.00;99.90;;;;;;5026831;28;20022;-55
2023/01/12 10:18:04;;;;;;;1.48;1.38;;;8.00;99.90;;;;;;5027256;28;20028;-58
2023/01/12 10:20:43;;;;;;;1.08;0.80;;;8.10;99.90;;;;;;5012196;28;20104;-57
2023/01/12 10:23:11;;;;;;;1.73;0.80;;;8.10;99.90;;;;;;5025371;28;20034;-56
2023/01/12 10:25:40;;;;;;;1.15;0.90;;;8.20;99.90;;;;;;5007633;28;20040;-58
2023/01/12 10:28:15;;;;;;;1.15;0.70;;;8.20;99.90;;;;;;5027431;28;20578;-57
2023/01/12 10:30:41;;;;;;;4.50;0.98;;;8.30;99.90;;;;;;5010515;28;20025;-57
2023/01/12 10:33:19;;;;;;;1.38;0.73;;;8.20;99.90;;;;;;5009171;28;20033;-58
2023/01/12 10:35:52;;;;;;;1.02;0.80;;;8.20;99.90;;;;;;5027351;28;20030;-58
2023/01/12 10:38:24;;;;;;;1.13;1.10;;;8.30;99.90;;;;;;5027008;28;20024;-55
2023/01/12 10:41:05;;;;;;;1.20;1.10;;;8.30;99.90;;;;;;5026416;28;20029;-55
2023/01/12 10:43:32;;;;;;;1.80;1.20;;;8.30;99.90;;;;;;5027200;28;20315;-57
2023/01/12 10:46:10;;;;;;;1.20;0.90;;;8.40;99.90;;;;;;5007305;28;20044;-58
2023/01/12 10:48:42;;;;;;;0.77;0.68;;;8.40;99.90;;;;;;5026619;28;20446;-57
2023/01/12 10:51:33;;;;;;;2.20;0.93;;;8.40;99.90;;;;;;5008543;28;20516;-56
2023/01/12 10:54:16;;;;;;;0.80;0.80;;;8.40;99.90;;;;;;5026239;28;20159;-58
2023/01/12 10:56:52;;;;;;;2.13;1.00;;;8.50;99.90;;;;;;5006745;28;20072;-57
2023/01/12 10:59:20;;;;;;;1.35;1.20;;;8.50;99.90;;;;;;5027636;28;20070;-57
2023/01/12 11:02:07;;;;;;;3.50;1.50;;;8.50;99.90;;;;;;5026441;28;20028;-58
2023/01/12 11:04:45;;;;;;;0.80;0.80;;;8.50;99.90;;;;;;5026847;28;20021;-55
2023/01/12 11:07:14;;;;;;;0.82;0.80;;;8.50;99.90;;;;;;5029784;28;20513;-57
2023/01/12 11:09:42;;;;;;;1.17;1.02;;;8.60;99.90;;;;;;5012563;28;20029;-55
2023/01/12 11:12:32;;;;;;;1.58;1.35;;;8.60;99.90;;;;;;5031189;28;20033;-55
2023/01/12 11:15:24;;;;;;;1.67;1.17;;;8.60;99.90;;;;;;5030473;28;20021;-55
2023/01/12 11:18:11;;;;;;;1.60;1.25;;;8.60;99.90;;;;;;5028283;28;20026;-58
2023/01/12 11:20:51;;;;;;;1.35;1.23;;;8.60;99.90;;;;;;5031381;28;20079;-58
2023/01/12 11:23:29;;;;;;;1.70;1.08;;;8.70;99.90;;;;;;5026599;28;20162;-55
2023/01/12 11:25:58;;;;;;;1.88;1.15;;;8.70;99.90;;;;;;5029123;28;20437;-56
2023/01/12 11:28:37;;;;;;;1.20;1.10;;;8.70;99.90;;;;;;5026893;28;20037;-57
2023/01/12 11:31:13;;;;;;;1.60;1.30;;;8.80;99.90;;;;;;5026669;28;20033;-58
2023/01/12 11:33:47;;;;;;;1.13;1.02;;;8.80;99.90;;;;;;5029970;28;20250;-58
2023/01/12 11:36:24;;;;;;;1.67;1.23;;;8.90;99.90;;;;;;5028690;28;20029;-56
2023/01/12 11:39:00;;;;;;;1.40;1.10;;;8.90;99.90;;;;;;5029784;28;20097;-56
2023/01/12 11:41:34;;;;;;;3.50;1.75;;;8.90;99.90;;;;;;5030707;28;20022;-58
2023/01/12 11:44:48;;;;;;;12.48;10.27;;;9.00;99.90;;;;;;5029729;28;20017;-57
2023/01/12 11:47:19;;;;;;;1.58;1.48;;;9.00;99.90;;;;;;4961217;28;20046;-56
2023/01/12 11:49:57;;;;;;;1.17;1.10;;;9.10;99.90;;;;;;5025884;28;20030;-57
2023/01/12 11:52:25;;;;;;;2.75;2.13;;;9.10;99.90;;;;;;5030490;28;20047;-56
2023/01/12 11:54:50;;;;;;;1.30;0.90;;;9.10;99.90;;;;;;5030245;28;20147;-58
2023/01/12 11:57:23;;;;;;;1.13;0.90;;;9.10;99.90;;;;;;5028847;28;20720;-58
2023/01/12 12:00:00;;;;;;;2.28;1.23;;;9.10;99.90;;;;;;5030428;28;20021;-58
2023/01/12 12:02:35;;;;;;;5.28;3.17;;;9.20;99.90;;;;;;5028216;28;20083;-55
2023/01/12 12:05:08;;;;;;;1.60;1.50;;;9.20;99.90;;;;;;5029832;28;20033;-57
2023/01/12 12:07:53;;;;;;;2.33;1.00;;;9.20;99.90;;;;;;5011536;28;20112;-57
2023/01/12 12:10:24;;;;;;;1.10;1.10;;;9.20;99.90;;;;;;5027160;28;20083;-55
2023/01/12 12:13:08;;;;;;;1.02;0.95;;;9.20;99.90;;;;;;5024943;28;20021;-58
2023/01/12 12:15:58;;;;;;;2.22;1.30;;;9.20;99.90;;;;;;5026133;28;20068;-55
2023/01/12 12:18:37;;;;;;;1.40;1.30;;;9.30;99.90;;;;;;5028123;28;20026;-57
2023/01/12 12:21:21;;;;;;;1.83;1.50;;;9.30;99.90;;;;;;5024770;28;20103;-55
2023/01/12 12:24:22;;;;;;;2.70;1.67;;;9.30;99.90;;;;;;5028768;28;20017;-56
2023/01/12 12:27:15;;;;;;;0.90;0.90;;;9.40;99.90;;;;;;5026162;28;20060;-56
2023/01/12 12:30:11;;;;;;;1.50;1.40;;;9.40;99.90;;;;;;4989340;28;20038;-54
2023/01/12 12:32:46;;;;;;;1.75;1.23;;;9.50;99.90;;;;;;5028327;28;20904;-56
2023/01/12 12:35:28;;;;;;;2.80;0.98;;;9.60;99.90;;;;;;5026666;28;20144;-54
2023/01/12 12:38:14;;;;;;;1.42;1.23;;;9.60;99.90;;;;;;5027179;28;20017;-58
2023/01/12 12:46:37;;;;;;;0.80;0.80;;;9.70;99.90;;;;;;5025673;28;20044;-53
2023/01/12 12:49:09;;;;;;;2.78;1.00;;;9.70;99.90;;;;;;5026548;28;20025;-56
2023/01/12 12:51:37;;;;;;;2.05;1.00;;;9.80;99.90;;;;;;5028265;28;20030;-54
2023/01/12 12:54:05;;;;;;;0.63;0.63;;;9.80;99.90;;;;;;5028014;28;20488;-55
2023/01/12 12:56:34;;;;;;;1.55;0.90;;;9.80;99.90;;;;;;5027225;28;20052;-54
2023/01/12 12:59:03;;;;;;;4.50;1.02;;;9.80;99.90;;;;;;5029158;28;20392;-54
2023/01/12 13:01:29;;;;;;;2.05;1.10;;;9.80;99.90;;;;;;5028829;28;20033;-54
2023/01/12 13:04:02;;;;;;;5.00;1.30;;;9.70;99.90;;;;;;5029537;28;20379;-56
2023/01/12 13:06:44;;;;;;;2.22;0.75;;;9.70;99.90;;;;;;5026952;28;20052;-56
2023/01/12 13:09:10;;;;;;;2.22;1.00;;;9.70;99.90;;;;;;5028888;28;20053;-53
2023/01/12 13:11:57;;;;;;;4.25;1.17;;;9.70;99.90;;;;;;5028109;28;20552;-56
2023/01/12 13:14:34;;;;;;;6.80;1.35;;;9.70;99.90;;;;;;5028654;28;20034;-57
2023/01/12 13:17:19;;;;;;;10.32;2.35;;;9.60;99.90;;;;;;5026639;28;20033;-55
2023/01/12 13:20:04;;;;;;;6.88;2.03;;;9.60;99.90;;;;;;5028470;28;20033;-56
2023/01/12 13:22:42;;;;;;;7.57;2.47;;;9.60;99.90;;;;;;4983203;28;20029;-53
2023/01/12 13:25:21;;;;;;;11.43;2.10;;;9.60;99.90;;;;;;5011226;28;20273;-55
2023/01/12 13:27:55;;;;;;;9.48;2.47;;;9.60;99.90;;;;;;5027266;28;20044;-55
2023/01/12 13:30:29;;;;;;;6.10;1.77;;;9.60;99.90;;;;;;5024647;28;20028;-53
2023/01/12 13:33:18;;;;;;;14.10;2.63;;;9.60;99.90;;;;;;5010190;28;20022;-56
2023/01/12 13:35:45;;;;;;;8.60;2.40;;;9.60;99.90;;;;;;5026291;28;20080;-53
2023/01/12 13:38:32;;;;;;;10.45;2.95;;;9.50;99.90;;;;;;5028162;28;20083;-56
2023/01/12 13:41:12;;;;;;;7.40;1.90;;;9.50;99.90;;;;;;5028734;28;20018;-56
2023/01/12 13:43:53;;;;;;;13.85;3.35;;;9.50;99.90;;;;;;5028615;28;20063;-54
2023/01/12 13:46:42;;;;;;;11.27;2.70;;;9.50;99.90;;;;;;5026812;28;20026;-53
2023/01/12 13:49:26;;;;;;;10.27;2.40;;;9.50;99.90;;;;;;5010425;28;20040;-55
2023/01/12 13:52:00;;;;;;;9.85;3.08;;;9.40;99.90;;;;;;5009561;28;20025;-55